sensor_id;sensor_type;location;lat;lon;timestamp;P1;durP1;ratioP1;P2;durP2;ratioP2
19402;SDS011;9837;48.888;8.998;2022-12-29T04:01:11;5.20;;;1.97;;
19402;SDS011;9837;48.888;8.998;2022-12-29T04:03:38;2.27;;;1.30;;
19402;SDS011;9837;48.888;8.998;2022-12-29T04:06:04;1.83;;;1.13;;
19402;SDS011;9837;48.888;8.998;2022-12-29T04:08:30;2.17;;;1.40;;
19402;SDS011;9837;48.888;8.998;2022-12-29T04:10:56;1.30;;;1.20;;
19402;SDS011;9837;48.888;8.998;2022-12-29T04:13:22;1.53;;;1.13;;
19402;SDS011;9837;48.888;8.998;2022-12-29T10:24:19;3.37;;;1.50;;
19402;SDS011;9837;48.888;8.998;2022-12-29T10:26:47;4.40;;;2.30;;
19402;SDS011;9837;48.888;8.998;2022-12-29T10:29:20;2.50;;;1.50;;
19402;SDS011;9837;48.888;8.998;2022-12-29T10:31:59;2.73;;;2.23;;
19402;SDS011;9837;48.888;8.998;2022-12-29T10:34:34;2.23;;;1.70;;
19402;SDS011;9837;48.888;8.998;2022-12-29T10:37:04;2.10;;;1.30;;
19402;SDS011;9837;48.888;8.998;2022-12-29T10:39:40;1.50;;;1.37;;
19402;SDS011;9837;48.888;8.998;2022-12-29T10:42:15;4.17;;;3.20;;
19402;SDS011;9837;48.888;8.998;2022-12-29T10:44:46;3.30;;;3.00;;
19402;SDS011;9837;48.888;8.998;2022-12-29T10:47:14;3.30;;;1.93;;
19402;SDS011;9837;48.888;8.998;2022-12-29T10:49:44;2.23;;;1.53;;
19402;SDS011;9837;48.888;8.998;2022-12-29T10:52:11;1.80;;;1.70;;
19402;SDS011;9837;48.888;8.998;2022-12-29T10:54:49;4.80;;;1.70;;
19402;SDS011;9837;48.888;8.998;2022-12-29T10:57:26;7.30;;;4.00;;
19402;SDS011;9837;48.888;8.998;2022-12-29T10:59:57;2.17;;;1.97;;
19402;SDS011;9837;48.888;8.998;2022-12-29T11:02:26;2.03;;;1.70;;
19402;SDS011;9837;48.888;8.998;2022-12-29T11:05:32;2.27;;;1.50;;
19402;SDS011;9837;48.888;8.998;2022-12-29T11:08:03;2.10;;;1.37;;
19402;SDS011;9837;48.888;8.998;2022-12-29T11:10:38;2.27;;;1.20;;
19402;SDS011;9837;48.888;8.998;2022-12-29T11:13:15;1.47;;;1.30;;
19402;SDS011;9837;48.888;8.998;2022-12-29T11:15:46;1.50;;;1.40;;
19402;SDS011;9837;48.888;8.998;2022-12-29T11:18:17;2.37;;;1.30;;
19402;SDS011;9837;48.888;8.998;2022-12-29T11:20:43;3.73;;;1.40;;
19402;SDS011;9837;48.888;8.998;2022-12-29T11:23:25;1.87;;;1.33;;
19402;SDS011;9837;48.888;8.998;2022-12-29T11:28:38;1.73;;;1.57;;
19402;SDS011;9837;48.888;8.998;2022-12-29T11:31:05;3.33;;;1.60;;
19402;SDS011;9837;48.888;8.998;2022-12-29T11:33:32;3.57;;;1.50;;
19402;SDS011;9837;48.888;8.998;2022-12-29T11:36:04;2.63;;;1.90;;
19402;SDS011;9837;48.888;8.998;2022-12-29T11:38:36;3.77;;;1.90;;
19402;SDS011;9837;48.888;8.998;2022-12-29T11:41:05;2.63;;;2.43;;
19402;SDS011;9837;48.888;8.998;2022-12-29T11:43:41;4.00;;;2.03;;
19402;SDS011;9837;48.888;8.998;2022-12-29T11:49:04;2.00;;;1.60;;
19402;SDS011;9837;48.888;8.998;2022-12-29T11:51:35;4.00;;;1.60;;
19402;SDS011;9837;48.888;8.998;2022-12-29T11:54:09;3.10;;;1.33;;
19402;SDS011;9837;48.888;8.998;2022-12-29T11:57:12;1.70;;;1.00;;
19402;SDS011;9837;48.888;8.998;2022-12-29T11:59:41;1.00;;;0.83;;
19402;SDS011;9837;48.888;8.998;2022-12-29T12:05:13;1.57;;;1.23;;
19402;SDS011;9837;48.888;8.998;2022-12-29T12:10:57;1.50;;;1.17;;
19402;SDS011;9837;48.888;8.998;2022-12-29T12:14:06;1.90;;;1.40;;
19402;SDS011;9837;48.888;8.998;2022-12-29T12:16:29;1.47;;;1.20;;
19402;SDS011;9837;48.888;8.998;2022-12-29T12:24:52;1.07;;;1.00;;
19402;SDS011;9837;48.888;8.998;2022-12-29T12:27:24;1.93;;;1.27;;
19402;SDS011;9837;48.888;8.998;2022-12-29T12:39:00;2.73;;;2.17;;
19402;SDS011;9837;48.888;8.998;2022-12-29T12:53:00;4.90;;;3.23;;
19402;SDS011;9837;48.888;8.998;2022-12-29T13:06:12;3.57;;;1.87;;
19402;SDS011;9837;48.888;8.998;2022-12-29T13:09:49;3.93;;;1.90;;
19402;SDS011;9837;48.888;8.998;2022-12-29T13:12:06;1.73;;;1.50;;
19402;SDS011;9837;48.888;8.998;2022-12-29T13:23:08;3.27;;;2.50;;
19402;SDS011;9837;48.888;8.998;2022-12-29T13:25:41;4.77;;;2.80;;
19402;SDS011;9837;48.888;8.998;2022-12-29T13:28:24;6.83;;;2.73;;
19402;SDS011;9837;48.888;8.998;2022-12-29T13:36:34;3.67;;;2.13;;
19402;SDS011;9837;48.888;8.998;2022-12-29T13:39:32;2.63;;;1.90;;
19402;SDS011;9837;48.888;8.998;2022-12-29T13:42:14;3.03;;;1.43;;
19402;SDS011;9837;48.888;8.998;2022-12-29T13:47:36;3.60;;;1.67;;
19402;SDS011;9837;48.888;8.998;2022-12-29T13:50:23;3.60;;;2.37;;
19402;SDS011;9837;48.888;8.998;2022-12-29T13:55:52;3.37;;;2.90;;
19402;SDS011;9837;48.888;8.998;2022-12-29T13:58:31;3.97;;;2.77;;
19402;SDS011;9837;48.888;8.998;2022-12-29T14:03:52;4.73;;;2.63;;
19402;SDS011;9837;48.888;8.998;2022-12-29T14:06:22;3.20;;;2.27;;
19402;SDS011;9837;48.888;8.998;2022-12-29T14:08:53;8.50;;;4.37;;
19402;SDS011;9837;48.888;8.998;2022-12-29T14:11:35;4.50;;;2.50;;
19402;SDS011;9837;48.888;8.998;2022-12-29T14:16:48;7.70;;;3.83;;
19402;SDS011;9837;48.888;8.998;2022-12-29T14:19:18;6.17;;;3.30;;
19402;SDS011;9837;48.888;8.998;2022-12-29T14:21:53;4.33;;;3.13;;
19402;SDS011;9837;48.888;8.998;2022-12-29T14:34:49;6.67;;;3.97;;
19402;SDS011;9837;48.888;8.998;2022-12-29T14:37:25;2.93;;;1.97;;
19402;SDS011;9837;48.888;8.998;2022-12-29T14:40:04;5.53;;;2.13;;
19402;SDS011;9837;48.888;8.998;2022-12-29T14:42:32;7.90;;;4.90;;
19402;SDS011;9837;48.888;8.998;2022-12-29T14:45:19;6.17;;;3.90;;
19402;SDS011;9837;48.888;8.998;2022-12-29T14:47:52;5.50;;;3.30;;
19402;SDS011;9837;48.888;8.998;2022-12-29T14:50:29;4.60;;;2.30;;
19402;SDS011;9837;48.888;8.998;2022-12-29T14:53:00;3.37;;;1.67;;
19402;SDS011;9837;48.888;8.998;2022-12-29T14:55:36;3.30;;;2.40;;
19402;SDS011;9837;48.888;8.998;2022-12-29T15:00:51;5.17;;;2.77;;
19402;SDS011;9837;48.888;8.998;2022-12-29T15:03:21;3.40;;;1.77;;
19402;SDS011;9837;48.888;8.998;2022-12-29T15:06:21;2.70;;;2.00;;
19402;SDS011;9837;48.888;8.998;2022-12-29T15:14:01;1.77;;;1.40;;
19402;SDS011;9837;48.888;8.998;2022-12-29T15:16:32;2.70;;;1.60;;
19402;SDS011;9837;48.888;8.998;2022-12-29T15:19:01;2.23;;;1.50;;
19402;SDS011;9837;48.888;8.998;2022-12-29T15:21:30;2.47;;;1.77;;
19402;SDS011;9837;48.888;8.998;2022-12-29T15:23:58;3.13;;;1.73;;
19402;SDS011;9837;48.888;8.998;2022-12-29T15:26:35;4.03;;;1.90;;
19402;SDS011;9837;48.888;8.998;2022-12-29T15:32:02;1.60;;;1.50;;
19402;SDS011;9837;48.888;8.998;2022-12-29T15:34:41;0.97;;;0.97;;
19402;SDS011;9837;48.888;8.998;2022-12-29T15:37:25;2.80;;;1.07;;
19402;SDS011;9837;48.888;8.998;2022-12-29T15:39:52;2.30;;;0.90;;
19402;SDS011;9837;48.888;8.998;2022-12-29T15:44:57;0.80;;;0.80;;
19402;SDS011;9837;48.888;8.998;2022-12-29T15:47:27;1.57;;;1.10;;
19402;SDS011;9837;48.888;8.998;2022-12-29T15:52:45;1.20;;;0.90;;
19402;SDS011;9837;48.888;8.998;2022-12-29T15:55:21;2.73;;;1.00;;
19402;SDS011;9837;48.888;8.998;2022-12-29T15:57:58;1.80;;;0.87;;
19402;SDS011;9837;48.888;8.998;2022-12-29T16:00:29;1.03;;;0.70;;
19402;SDS011;9837;48.888;8.998;2022-12-29T16:02:57;4.13;;;1.10;;
19402;SDS011;9837;48.888;8.998;2022-12-29T16:05:31;0.90;;;0.90;;
19402;SDS011;9837;48.888;8.998;2022-12-29T16:07:59;0.93;;;0.87;;
19402;SDS011;9837;48.888;8.998;2022-12-29T16:10:26;1.10;;;0.77;;
19402;SDS011;9837;48.888;8.998;2022-12-29T16:13:17;1.17;;;0.87;;
19402;SDS011;9837;48.888;8.998;2022-12-29T16:15:56;0.70;;;0.70;;
19402;SDS011;9837;48.888;8.998;2022-12-29T16:18:27;1.83;;;0.80;;
19402;SDS011;9837;48.888;8.998;2022-12-29T16:20:59;1.00;;;0.90;;
19402;SDS011;9837;48.888;8.998;2022-12-29T16:23:26;1.07;;;0.90;;
19402;SDS011;9837;48.888;8.998;2022-12-29T16:25:54;1.57;;;1.20;;
19402;SDS011;9837;48.888;8.998;2022-12-29T16:28:35;1.37;;;1.07;;
19402;SDS011;9837;48.888;8.998;2022-12-29T16:31:13;1.07;;;0.90;;
19402;SDS011;9837;48.888;8.998;2022-12-29T16:33:49;2.23;;;0.87;;
19402;SDS011;9837;48.888;8.998;2022-12-29T16:36:33;1.80;;;1.00;;
19402;SDS011;9837;48.888;8.998;2022-12-29T16:47:46;0.80;;;0.80;;
19402;SDS011;9837;48.888;8.998;2022-12-29T16:50:33;0.70;;;0.60;;
19402;SDS011;9837;48.888;8.998;2022-12-29T16:53:00;0.97;;;0.83;;
19402;SDS011;9837;48.888;8.998;2022-12-29T16:55:27;2.27;;;0.80;;
19402;SDS011;9837;48.888;8.998;2022-12-29T16:57:53;2.10;;;0.90;;
19402;SDS011;9837;48.888;8.998;2022-12-29T17:00:22;0.80;;;0.80;;
19402;SDS011;9837;48.888;8.998;2022-12-29T17:02:50;1.00;;;0.70;;
19402;SDS011;9837;48.888;8.998;2022-12-29T17:05:23;1.83;;;1.00;;
19402;SDS011;9837;48.888;8.998;2022-12-29T17:07:49;1.13;;;1.03;;
19402;SDS011;9837;48.888;8.998;2022-12-29T17:10:16;1.73;;;0.97;;
19402;SDS011;9837;48.888;8.998;2022-12-29T17:12:42;1.63;;;1.33;;
19402;SDS011;9837;48.888;8.998;2022-12-29T17:15:13;1.77;;;0.93;;
19402;SDS011;9837;48.888;8.998;2022-12-29T17:17:59;1.10;;;1.00;;
19402;SDS011;9837;48.888;8.998;2022-12-29T17:20:26;1.07;;;0.80;;
19402;SDS011;9837;48.888;8.998;2022-12-29T17:22:53;0.70;;;0.70;;
19402;SDS011;9837;48.888;8.998;2022-12-29T17:25:24;0.73;;;0.73;;
19402;SDS011;9837;48.888;8.998;2022-12-29T17:27:55;2.10;;;0.77;;
19402;SDS011;9837;48.888;8.998;2022-12-29T17:30:24;1.70;;;1.00;;
19402;SDS011;9837;48.888;8.998;2022-12-29T17:32:52;3.70;;;0.93;;
19402;SDS011;9837;48.888;8.998;2022-12-29T17:35:20;2.13;;;0.83;;
19402;SDS011;9837;48.888;8.998;2022-12-29T17:37:47;2.10;;;0.90;;
19402;SDS011;9837;48.888;8.998;2022-12-29T17:40:17;2.17;;;1.00;;
19402;SDS011;9837;48.888;8.998;2022-12-29T17:42:47;0.77;;;0.73;;
19402;SDS011;9837;48.888;8.998;2022-12-29T17:45:17;2.30;;;1.00;;
19402;SDS011;9837;48.888;8.998;2022-12-29T17:47:48;1.13;;;0.80;;
19402;SDS011;9837;48.888;8.998;2022-12-29T17:50:15;1.97;;;0.97;;
19402;SDS011;9837;48.888;8.998;2022-12-29T17:52:46;0.70;;;0.67;;
19402;SDS011;9837;48.888;8.998;2022-12-29T17:55:20;3.47;;;1.07;;
19402;SDS011;9837;48.888;8.998;2022-12-29T17:57:47;1.23;;;1.00;;
19402;SDS011;9837;48.888;8.998;2022-12-29T18:00:18;2.47;;;0.97;;
19402;SDS011;9837;48.888;8.998;2022-12-29T18:02:45;2.10;;;1.10;;
19402;SDS011;9837;48.888;8.998;2022-12-29T18:05:22;2.43;;;1.13;;
19402;SDS011;9837;48.888;8.998;2022-12-29T18:07:50;1.93;;;1.03;;
19402;SDS011;9837;48.888;8.998;2022-12-29T18:10:17;1.43;;;0.90;;
19402;SDS011;9837;48.888;8.998;2022-12-29T18:12:45;2.53;;;0.80;;
19402;SDS011;9837;48.888;8.998;2022-12-29T18:15:17;2.43;;;0.93;;
19402;SDS011;9837;48.888;8.998;2022-12-29T18:17:45;2.50;;;1.57;;
19402;SDS011;9837;48.888;8.998;2022-12-29T18:20:11;4.23;;;1.07;;
19402;SDS011;9837;48.888;8.998;2022-12-29T18:22:37;2.27;;;1.10;;
19402;SDS011;9837;48.888;8.998;2022-12-29T18:25:24;2.20;;;0.90;;
19402;SDS011;9837;48.888;8.998;2022-12-29T18:27:53;1.00;;;0.90;;
19402;SDS011;9837;48.888;8.998;2022-12-29T18:30:19;2.23;;;1.00;;
19402;SDS011;9837;48.888;8.998;2022-12-29T18:32:44;0.60;;;0.60;;
19402;SDS011;9837;48.888;8.998;2022-12-29T18:35:18;1.53;;;0.90;;
19402;SDS011;9837;48.888;8.998;2022-12-29T18:37:48;3.47;;;0.87;;
19402;SDS011;9837;48.888;8.998;2022-12-29T18:40:14;5.03;;;1.43;;
19402;SDS011;9837;48.888;8.998;2022-12-29T18:42:40;4.70;;;1.50;;
19402;SDS011;9837;48.888;8.998;2022-12-29T18:45:24;2.33;;;1.10;;
19402;SDS011;9837;48.888;8.998;2022-12-29T18:47:50;1.23;;;1.07;;
19402;SDS011;9837;48.888;8.998;2022-12-29T18:50:16;1.27;;;1.00;;
19402;SDS011;9837;48.888;8.998;2022-12-29T18:52:42;4.17;;;1.07;;
19402;SDS011;9837;48.888;8.998;2022-12-29T18:55:10;1.83;;;0.90;;
19402;SDS011;9837;48.888;8.998;2022-12-29T18:57:45;3.50;;;1.20;;
19402;SDS011;9837;48.888;8.998;2022-12-29T19:00:12;2.30;;;1.03;;
19402;SDS011;9837;48.888;8.998;2022-12-29T19:02:38;5.67;;;1.33;;
19402;SDS011;9837;48.888;8.998;2022-12-29T19:05:21;6.57;;;1.30;;
19402;SDS011;9837;48.888;8.998;2022-12-29T19:08:00;3.03;;;1.43;;
19402;SDS011;9837;48.888;8.998;2022-12-29T19:10:27;2.87;;;1.30;;
19402;SDS011;9837;48.888;8.998;2022-12-29T19:12:53;2.60;;;1.80;;
19402;SDS011;9837;48.888;8.998;2022-12-29T19:15:21;1.93;;;1.50;;
19402;SDS011;9837;48.888;8.998;2022-12-29T19:17:48;10.50;;;2.47;;
19402;SDS011;9837;48.888;8.998;2022-12-29T19:20:36;5.80;;;2.00;;
19402;SDS011;9837;48.888;8.998;2022-12-29T19:23:05;2.23;;;1.03;;
19402;SDS011;9837;48.888;8.998;2022-12-29T19:25:36;1.53;;;1.43;;
19402;SDS011;9837;48.888;8.998;2022-12-29T19:28:03;3.53;;;1.20;;
19402;SDS011;9837;48.888;8.998;2022-12-29T19:30:29;1.97;;;1.30;;
19402;SDS011;9837;48.888;8.998;2022-12-29T19:32:57;1.43;;;1.07;;
19402;SDS011;9837;48.888;8.998;2022-12-29T19:35:25;2.53;;;1.03;;
19402;SDS011;9837;48.888;8.998;2022-12-29T19:37:51;4.47;;;1.40;;
19402;SDS011;9837;48.888;8.998;2022-12-29T19:40:18;3.17;;;1.07;;
19402;SDS011;9837;48.888;8.998;2022-12-29T19:42:46;1.03;;;0.90;;
19402;SDS011;9837;48.888;8.998;2022-12-29T19:45:12;0.90;;;0.87;;
19402;SDS011;9837;48.888;8.998;2022-12-29T19:47:39;2.57;;;0.80;;
19402;SDS011;9837;48.888;8.998;2022-12-29T19:50:06;4.43;;;1.20;;
19402;SDS011;9837;48.888;8.998;2022-12-29T19:52:33;2.97;;;1.10;;
19402;SDS011;9837;48.888;8.998;2022-12-29T19:55:00;3.43;;;1.00;;
19402;SDS011;9837;48.888;8.998;2022-12-29T19:57:26;3.00;;;1.07;;
19402;SDS011;9837;48.888;8.998;2022-12-29T19:59:52;1.00;;;0.87;;
19402;SDS011;9837;48.888;8.998;2022-12-29T20:02:25;3.63;;;1.03;;
19402;SDS011;9837;48.888;8.998;2022-12-29T20:04:53;1.50;;;0.90;;
19402;SDS011;9837;48.888;8.998;2022-12-29T20:07:19;4.03;;;1.00;;
19402;SDS011;9837;48.888;8.998;2022-12-29T20:09:46;2.93;;;1.20;;
19402;SDS011;9837;48.888;8.998;2022-12-29T20:12:12;1.53;;;0.90;;
19402;SDS011;9837;48.888;8.998;2022-12-29T20:14:38;3.40;;;1.03;;
19402;SDS011;9837;48.888;8.998;2022-12-29T20:17:05;1.77;;;1.23;;
19402;SDS011;9837;48.888;8.998;2022-12-29T20:19:32;2.77;;;1.63;;
19402;SDS011;9837;48.888;8.998;2022-12-29T20:21:59;5.37;;;1.67;;
19402;SDS011;9837;48.888;8.998;2022-12-29T20:24:25;1.67;;;1.23;;
19402;SDS011;9837;48.888;8.998;2022-12-29T20:26:51;2.67;;;1.20;;
19402;SDS011;9837;48.888;8.998;2022-12-29T20:29:18;5.30;;;1.63;;
19402;SDS011;9837;48.888;8.998;2022-12-29T20:31:45;2.90;;;1.60;;
19402;SDS011;9837;48.888;8.998;2022-12-29T20:34:11;7.53;;;1.50;;
19402;SDS011;9837;48.888;8.998;2022-12-29T20:36:38;1.53;;;1.43;;
19402;SDS011;9837;48.888;8.998;2022-12-29T20:39:07;3.97;;;1.30;;
19402;SDS011;9837;48.888;8.998;2022-12-29T20:41:36;4.57;;;1.63;;
19402;SDS011;9837;48.888;8.998;2022-12-29T20:44:02;3.27;;;1.13;;
19402;SDS011;9837;48.888;8.998;2022-12-29T20:46:29;0.97;;;0.90;;
19402;SDS011;9837;48.888;8.998;2022-12-29T20:48:55;1.47;;;1.37;;
19402;SDS011;9837;48.888;8.998;2022-12-29T20:51:21;4.47;;;1.67;;
19402;SDS011;9837;48.888;8.998;2022-12-29T20:53:47;3.13;;;1.00;;
19402;SDS011;9837;48.888;8.998;2022-12-29T20:56:15;1.50;;;1.40;;
19402;SDS011;9837;48.888;8.998;2022-12-29T20:58:47;1.83;;;1.00;;
19402;SDS011;9837;48.888;8.998;2022-12-29T21:01:13;3.17;;;1.60;;
19402;SDS011;9837;48.888;8.998;2022-12-29T21:03:41;1.43;;;1.33;;
19402;SDS011;9837;48.888;8.998;2022-12-29T21:06:08;2.37;;;1.10;;
19402;SDS011;9837;48.888;8.998;2022-12-29T21:08:34;8.30;;;5.67;;
19402;SDS011;9837;48.888;8.998;2022-12-29T21:11:00;4.60;;;2.50;;
19402;SDS011;9837;48.888;8.998;2022-12-29T21:13:27;1.70;;;1.13;;
19402;SDS011;9837;48.888;8.998;2022-12-29T21:16:00;2.20;;;1.10;;
19402;SDS011;9837;48.888;8.998;2022-12-29T21:18:28;2.17;;;0.90;;
19402;SDS011;9837;48.888;8.998;2022-12-29T21:20:55;1.97;;;1.00;;
19402;SDS011;9837;48.888;8.998;2022-12-29T21:23:21;1.70;;;1.03;;
19402;SDS011;9837;48.888;8.998;2022-12-29T21:25:47;1.10;;;0.90;;
19402;SDS011;9837;48.888;8.998;2022-12-29T21:28:13;1.97;;;1.07;;
19402;SDS011;9837;48.888;8.998;2022-12-29T21:30:39;1.50;;;1.37;;
19402;SDS011;9837;48.888;8.998;2022-12-29T21:33:06;1.43;;;1.07;;
19402;SDS011;9837;48.888;8.998;2022-12-29T21:35:37;1.20;;;1.00;;
19402;SDS011;9837;48.888;8.998;2022-12-29T21:38:03;1.20;;;1.07;;
19402;SDS011;9837;48.888;8.998;2022-12-29T21:40:30;1.00;;;0.97;;
19402;SDS011;9837;48.888;8.998;2022-12-29T21:42:56;3.10;;;1.13;;
19402;SDS011;9837;48.888;8.998;2022-12-29T21:45:22;1.33;;;1.10;;
19402;SDS011;9837;48.888;8.998;2022-12-29T21:48:03;1.07;;;0.90;;
19402;SDS011;9837;48.888;8.998;2022-12-29T21:50:53;0.87;;;0.83;;
19402;SDS011;9837;48.888;8.998;2022-12-29T21:53:41;1.57;;;0.83;;
19402;SDS011;9837;48.888;8.998;2022-12-29T21:56:12;1.13;;;0.80;;
19402;SDS011;9837;48.888;8.998;2022-12-29T21:58:43;1.47;;;0.97;;
